Time;durP1;ratioP1;P1;durP2;ratioP2;P2;SDS_P1;SDS_P2;PMS_P1;PMS_P2;Temp;Humidity;BMP_temperature;BMP_pressure;BME280_temperature;BME280_humidity;BME280_pressure;Samples;Min_cycle;Max_cycle;Signal;HPM_P1;HPM_P2
2021/12/03 00:00:20;;;;;;;13.27;4.82;;;;;;;0.02;100.00;100741.22;4822635;28;26149;-70
2021/12/03 00:02:46;;;;;;;13.23;4.40;;;;;;;0.15;100.00;100738.22;4819923;28;20130;-71
2021/12/03 00:05:11;;;;;;;16.17;4.40;;;;;;;0.23;100.00;100744.44;4811168;29;21859;-72
2021/12/03 00:07:40;;;;;;;15.88;4.05;;;;;;;0.21;100.00;100741.13;4814803;28;20051;-71
2021/12/03 00:10:07;;;;;;;18.45;4.28;;;;;;;0.18;100.00;100745.88;4833021;29;20043;-71
2021/12/03 00:12:32;;;;;;;20.77;5.43;;;;;;;0.13;100.00;100748.94;4795390;28;20651;-71
2021/12/03 00:14:58;;;;;;;20.52;5.80;;;;;;;0.01;100.00;100742.19;4801920;29;20055;-70
2021/12/03 00:17:23;;;;;;;17.70;4.70;;;;;;;-0.02;100.00;100750.44;4816591;29;20327;-70
2021/12/03 00:19:49;;;;;;;14.00;4.15;;;;;;;0.02;100.00;100757.09;4828466;29;20058;-70
2021/12/03 00:22:14;;;;;;;22.27;5.50;;;;;;;-0.03;100.00;100759.38;4789660;29;21648;-70
2021/12/03 00:24:40;;;;;;;12.02;4.07;;;;;;;-0.09;100.00;100755.47;4830145;29;21782;-71
2021/12/03 00:27:06;;;;;;;22.95;5.55;;;;;;;-0.12;100.00;100747.00;4827057;28;20576;-71
2021/12/03 00:29:32;;;;;;;19.42;5.32;;;;;;;-0.01;100.00;100757.38;4830290;28;20687;-71
2021/12/03 00:31:58;;;;;;;17.58;4.80;;;;;;;-0.08;100.00;100762.44;4831517;28;20533;-70
2021/12/03 00:34:26;;;;;;;11.05;3.20;;;;;;;-0.05;100.00;100751.56;4829045;28;20040;-72
2021/12/03 00:36:52;;;;;;;17.85;3.88;;;;;;;-0.04;100.00;100747.09;4818730;28;20114;-72
2021/12/03 00:39:18;;;;;;;14.27;4.60;;;;;;;-0.02;100.00;100739.84;4812553;29;20451;-72
2021/12/03 00:41:49;;;;;;;11.45;3.72;;;;;;;-0.02;100.00;100745.13;4832033;28;20122;-72
2021/12/03 00:44:14;;;;;;;11.93;4.03;;;;;;;0.05;100.00;100751.50;4834761;29;20542;-72
2021/12/03 00:46:40;;;;;;;11.82;4.07;;;;;;;0.07;100.00;100749.56;4812524;29;20448;-72
2021/12/03 00:49:05;;;;;;;11.45;4.22;;;;;;;0.16;100.00;100750.47;4815928;28;20485;-71
2021/12/03 00:51:31;;;;;;;14.63;4.22;;;;;;;0.18;100.00;100752.00;4830115;28;20038;-71
2021/12/03 00:53:56;;;;;;;10.50;3.60;;;;;;;0.24;100.00;100761.16;4811825;29;20038;-71
2021/12/03 00:56:22;;;;;;;12.27;4.93;;;;;;;0.27;100.00;100755.56;4797573;29;21916;-70
2021/12/03 00:58:48;;;;;;;17.00;4.57;;;;;;;0.23;100.00;100752.38;4828220;28;20055;-69
2021/12/03 01:01:14;;;;;;;9.02;3.28;;;;;;;0.25;100.00;100752.25;4825332;28;20062;-69
2021/12/03 01:03:40;;;;;;;14.70;3.67;;;;;;;0.25;100.00;100757.56;4832114;29;20126;-69
2021/12/03 01:06:06;;;;;;;17.35;4.78;;;;;;;0.21;100.00;100762.31;4819449;28;21362;-70
2021/12/03 01:08:35;;;;;;;9.73;3.53;;;;;;;0.16;100.00;100758.44;4832622;28;20668;-69
2021/12/03 01:11:01;;;;;;;14.30;5.00;;;;;;;0.17;100.00;100760.91;4798743;28;20063;-71
2021/12/03 01:13:26;;;;;;;16.75;5.22;;;;;;;0.18;100.00;100767.91;4828093;28;20031;-71
2021/12/03 01:15:52;;;;;;;10.38;3.75;;;;;;;0.20;100.00;100752.69;4832969;28;20074;-71
2021/12/03 01:18:17;;;;;;;13.00;4.38;;;;;;;0.21;100.00;100759.66;4826336;28;20800;-71
2021/12/03 01:20:43;;;;;;;14.02;3.72;;;;;;;0.22;100.00;100758.69;4803773;28;20209;-71
2021/12/03 01:23:12;;;;;;;13.07;4.10;;;;;;;0.22;100.00;100758.69;4834166;29;20047;-71
2021/12/03 01:25:37;;;;;;;19.10;6.50;;;;;;;0.21;100.00;100762.31;4814748;28;20461;-71
2021/12/03 01:28:03;;;;;;;13.90;4.63;;;;;;;0.28;100.00;100761.69;4815918;28;20245;-71
2021/12/03 01:30:30;;;;;;;15.13;3.97;;;;;;;0.29;100.00;100755.44;4798176;28;20052;-72
2021/12/03 01:32:57;;;;;;;15.82;5.10;;;;;;;0.28;100.00;100756.41;4831874;28;20035;-70
2021/12/03 01:35:23;;;;;;;14.55;3.42;;;;;;;0.30;100.00;100749.16;4831267;29;20042;-70
2021/12/03 01:37:48;;;;;;;11.82;3.80;;;;;;;0.38;100.00;100751.88;4824044;28;20134;-70
2021/12/03 01:40:20;;;;;;;9.90;4.15;;;;;;;0.37;100.00;100750.22;4831248;28;20486;-71
2021/12/03 01:42:46;;;;;;;14.70;4.93;;;;;;;0.36;100.00;100748.56;4831476;28;20122;-70
2021/12/03 01:45:15;;;;;;;12.60;5.63;;;;;;;0.41;100.00;100749.78;4799012;29;20893;-70
2021/12/03 01:47:42;;;;;;;12.23;4.80;;;;;;;0.43;100.00;100736.38;4814377;28;20109;-71
2021/12/03 01:50:09;;;;;;;11.38;4.65;;;;;;;0.45;100.00;100751.13;4825842;28;20064;-71
2021/12/03 01:52:35;;;;;;;10.65;3.75;;;;;;;0.52;100.00;100740.78;4797955;28;23361;-70
2021/12/03 01:55:02;;;;;;;10.23;3.45;;;;;;;0.57;100.00;100740.34;4829634;28;20805;-71
2021/12/03 01:57:28;;;;;;;15.80;3.50;;;;;;;0.58;100.00;100747.28;4802330;29;20047;-71
2021/12/03 01:59:53;;;;;;;7.03;4.18;;;;;;;0.61;100.00;100755.78;4827869;28;20066;-72
2021/12/03 02:02:19;;;;;;;9.52;4.25;;;;;;;0.66;100.00;100745.53;4831314;28;20039;-72
2021/12/03 02:04:44;;;;;;;12.73;4.82;;;;;;;0.66;100.00;100745.53;4815695;28;20055;-72
2021/12/03 02:07:10;;;;;;;8.85;5.20;;;;;;;0.64;100.00;100744.88;4831580;28;25730;-72
2021/12/03 02:09:35;;;;;;;12.73;5.30;;;;;;;0.70;100.00;100746.09;4794308;29;24896;-72
2021/12/03 02:12:01;;;;;;;11.23;5.53;;;;;;;0.70;100.00;100744.28;4822330;28;21624;-72
2021/12/03 02:14:26;;;;;;;14.40;5.72;;;;;;;0.76;100.00;100740.19;4815031;29;24053;-72
2021/12/03 02:16:52;;;;;;;12.82;6.30;;;;;;;0.76;100.00;100745.47;4800150;29;20057;-72
2021/12/03 02:19:18;;;;;;;27.00;8.93;;;;;;;0.73;100.00;100750.25;4822573;28;20042;-72
2021/12/03 02:21:44;;;;;;;26.90;10.18;;;;;;;0.74;100.00;100751.91;4812302;28;21768;-72
2021/12/03 02:24:10;;;;;;;23.75;7.38;;;;;;;0.81;100.00;100763.59;4799785;29;20546;-71
2021/12/03 02:26:35;;;;;;;12.95;6.47;;;;;;;0.83;100.00;100754.50;4824890;28;20333;-71
2021/12/03 02:29:02;;;;;;;17.15;6.97;;;;;;;0.85;100.00;100754.38;4809365;29;20293;-72
2021/12/03 02:31:27;;;;;;;20.30;8.43;;;;;;;0.84;100.00;100752.66;4804861;29;20063;-71
2021/12/03 02:33:53;;;;;;;16.98;7.03;;;;;;;0.83;100.00;100746.53;4811226;29;20023;-71
2021/12/03 02:36:19;;;;;;;20.77;8.30;;;;;;;0.89;100.00;100742.47;4822123;28;20590;-72
2021/12/03 02:38:45;;;;;;;19.25;7.95;;;;;;;0.82;100.00;100733.44;4810873;29;20146;-71
2021/12/03 02:41:11;;;;;;;16.98;7.78;;;;;;;0.84;100.00;100742.06;4812310;29;20166;-72
2021/12/03 02:43:37;;;;;;;24.33;10.38;;;;;;;0.84;100.00;100744.72;4809118;29;20610;-71
2021/12/03 02:46:02;;;;;;;14.60;8.02;;;;;;;0.88;100.00;100733.69;4826171;28;20035;-72
2021/12/03 02:48:31;;;;;;;15.25;7.93;;;;;;;0.94;100.00;100748.13;4807184;29;21091;-70
2021/12/03 02:50:56;;;;;;;20.35;7.97;;;;;;;0.90;100.00;100736.16;4810714;29;20039;-70
2021/12/03 02:53:22;;;;;;;18.42;8.73;;;;;;;0.91;100.00;100740.47;4795550;29;20464;-71
2021/12/03 02:55:49;;;;;;;21.10;8.55;;;;;;;0.91;100.00;100737.81;4797592;29;20052;-71
2021/12/03 02:58:15;;;;;;;14.90;8.38;;;;;;;0.90;100.00;100738.81;4797720;29;21599;-71
2021/12/03 03:00:44;;;;;;;22.38;9.82;;;;;;;0.91;100.00;100735.16;4811666;29;20039;-71
2021/12/03 03:03:10;;;;;;;18.42;10.02;;;;;;;0.86;100.00;100740.09;4799871;29;20171;-71
2021/12/03 03:05:35;;;;;;;24.67;11.63;;;;;;;0.85;100.00;100722.53;4827243;28;20035;-71
2021/12/03 03:08:02;;;;;;;27.70;12.05;;;;;;;0.77;100.00;100733.88;4807654;29;20039;-71
2021/12/03 03:10:30;;;;;;;27.85;13.70;;;;;;;0.74;100.00;100726.25;4808891;29;22605;-71
2021/12/03 03:12:58;;;;;;;28.00;15.60;;;;;;;0.79;100.00;100717.84;4812405;29;20134;-71
2021/12/03 03:15:24;;;;;;;29.98;16.70;;;;;;;0.79;100.00;100717.84;4806590;29;20107;-70
2021/12/03 03:17:49;;;;;;;31.75;18.45;;;;;;;0.82;100.00;100715.72;4810108;29;20035;-69
2021/12/03 03:20:16;;;;;;;39.10;22.33;;;;;;;0.93;100.00;100712.00;4826729;29;20707;-70
2021/12/03 03:22:42;;;;;;;41.22;23.67;;;;;;;0.96;100.00;100709.03;4805512;29;20513;-71
2021/12/03 03:25:11;;;;;;;45.88;26.80;;;;;;;0.94;100.00;100706.53;4811568;29;20043;-70
2021/12/03 03:27:36;;;;;;;49.00;26.52;;;;;;;0.95;100.00;100705.56;4822065;28;20133;-71
2021/12/03 03:30:04;;;;;;;48.47;28.42;;;;;;;0.93;100.00;100704.03;4801714;29;20718;-71
2021/12/03 03:32:30;;;;;;;46.42;28.60;;;;;;;0.98;100.00;100707.03;4829954;28;20030;-72
2021/12/03 03:34:55;;;;;;;51.22;30.52;;;;;;;0.99;100.00;100699.94;4799050;28;20051;-72
2021/12/03 03:37:21;;;;;;;51.75;32.72;;;;;;;0.99;100.00;100690.16;4830937;28;20031;-72
2021/12/03 03:39:48;;;;;;;49.75;32.25;;;;;;;0.99;100.00;100687.50;4812890;28;20055;-71
2021/12/03 03:42:14;;;;;;;60.30;33.10;;;;;;;1.03;100.00;100688.03;4830229;28;20042;-71
2021/12/03 03:44:40;;;;;;;50.40;34.30;;;;;;;0.95;100.00;100670.25;4812462;29;21763;-71
2021/12/03 03:47:07;;;;;;;56.90;35.70;;;;;;;0.95;100.00;100684.34;4825636;28;20049;-71
2021/12/03 03:49:33;;;;;;;62.13;37.35;;;;;;;0.92;100.00;100676.69;4803891;29;23898;-71
2021/12/03 03:52:00;;;;;;;54.97;35.83;;;;;;;0.93;100.00;100675.69;4829768;28;21812;-71
2021/12/03 03:54:26;;;;;;;60.75;38.28;;;;;;;1.01;100.00;100668.78;4827115;28;20513;-71
2021/12/03 03:56:51;;;;;;;58.05;36.53;;;;;;;1.03;100.00;100672.94;4827419;29;20031;-71
2021/12/03 03:59:18;;;;;;;53.88;36.55;;;;;;;1.03;100.00;100661.50;4791206;29;20114;-71
2021/12/03 04:01:48;;;;;;;56.25;36.47;;;;;;;1.00;100.00;100667.94;4800441;28;20807;-71
2021/12/03 04:04:14;;;;;;;53.58;34.50;;;;;;;1.12;100.00;100661.41;4814116;29;20027;-71
2021/12/03 04:06:41;;;;;;;49.65;31.83;;;;;;;1.09;100.00;100660.88;4825659;28;20091;-71
2021/12/03 04:09:07;;;;;;;52.42;31.92;;;;;;;1.11;100.00;100656.25;4826881;28;20293;-71
2021/12/03 04:11:33;;;;;;;48.00;31.33;;;;;;;1.09;100.00;100651.13;4812736;29;20050;-70
2021/12/03 04:13:59;;;;;;;45.28;30.42;;;;;;;1.14;100.00;100654.13;4813236;28;20711;-70
2021/12/03 04:16:24;;;;;;;46.90;30.50;;;;;;;1.16;100.00;100652.16;4828988;28;20047;-70
2021/12/03 04:18:50;;;;;;;47.10;30.00;;;;;;;1.13;100.00;100647.16;4824364;28;20058;-70
2021/12/03 04:21:15;;;;;;;46.45;29.27;;;;;;;1.13;100.00;100647.16;4806332;28;20047;-70
2021/12/03 04:23:41;;;;;;;40.35;27.60;;;;;;;1.11;100.00;100654.41;4834611;28;20059;-70
2021/12/03 04:26:06;;;;;;;41.72;27.40;;;;;;;1.07;100.00;100646.94;4798779;29;20055;-70
2021/12/03 04:28:32;;;;;;;38.58;27.17;;;;;;;1.06;100.00;100658.56;4827933;28;20748;-70
2021/12/03 04:30:58;;;;;;;42.85;26.35;;;;;;;0.91;100.00;100647.66;4815397;29;20752;-70
2021/12/03 04:33:24;;;;;;;40.72;27.40;;;;;;;0.95;100.00;100649.84;4799284;28;23628;-70
2021/12/03 04:35:49;;;;;;;38.97;26.77;;;;;;;0.91;100.00;100656.47;4795383;29;20078;-69
2021/12/03 04:38:15;;;;;;;42.47;28.02;;;;;;;0.81;100.00;100657.50;4811102;29;20054;-70
2021/12/03 04:40:41;;;;;;;41.97;27.55;;;;;;;0.84;100.00;100657.22;4814601;29;20538;-70
2021/12/03 04:43:07;;;;;;;39.42;27.52;;;;;;;0.80;100.00;100661.16;4811441;29;20638;-70
2021/12/03 04:45:33;;;;;;;43.75;27.27;;;;;;;0.74;100.00;100652.03;4780477;29;20704;-70
2021/12/03 04:48:00;;;;;;;37.30;28.33;;;;;;;0.76;100.00;100657.16;4812719;29;20600;-71
2021/12/03 04:50:28;;;;;;;36.78;26.27;;;;;;;0.73;100.00;100650.34;4814155;29;20039;-71
2021/12/03 04:52:54;;;;;;;45.38;27.15;;;;;;;0.66;100.00;100650.09;4796438;29;20845;-72
2021/12/03 04:55:21;;;;;;;42.47;26.67;;;;;;;0.68;100.00;100653.44;4814139;29;20494;-72
2021/12/03 04:57:49;;;;;;;38.97;26.85;;;;;;;0.70;100.00;100656.78;4811071;29;20090;-72
2021/12/03 05:00:22;;;;;;;34.90;25.20;;;;;;;0.67;100.00;100651.81;4811755;29;21711;-70
2021/12/03 05:02:49;;;;;;;38.05;26.60;;;;;;;0.59;100.00;100654.34;4829101;28;20593;-71
2021/12/03 05:05:16;;;;;;;32.83;26.10;;;;;;;0.64;100.00;100652.09;4799741;28;21634;-71
2021/12/03 05:07:54;;;;;;;35.42;24.83;;;;;;;0.68;100.00;100648.16;4828931;28;20549;-71
2021/12/03 05:10:20;;;;;;;35.40;25.48;;;;;;;0.68;100.00;100648.16;4806461;29;20047;-71
2021/12/03 05:12:46;;;;;;;34.95;25.92;;;;;;;0.64;100.00;100641.50;4804713;29;20838;-70
2021/12/03 05:15:11;;;;;;;40.17;26.58;;;;;;;0.57;100.00;100637.78;4813909;29;22842;-71
2021/12/03 05:17:37;;;;;;;35.45;25.33;;;;;;;0.56;100.00;100638.78;4774814;29;20047;-71
2021/12/03 05:20:03;;;;;;;34.72;26.52;;;;;;;0.56;100.00;100628.19;4812805;29;20142;-70
2021/12/03 05:22:29;;;;;;;39.65;27.77;;;;;;;0.56;100.00;100625.53;4812670;29;23964;-70
2021/12/03 05:24:55;;;;;;;35.60;26.60;;;;;;;0.54;100.00;100616.88;4808773;29;20070;-71
2021/12/03 05:27:20;;;;;;;38.60;26.60;;;;;;;0.46;100.00;100611.53;4825616;29;20083;-70
2021/12/03 05:29:48;;;;;;;33.60;26.02;;;;;;;0.55;100.00;100613.25;4826004;28;21056;-70
2021/12/03 05:32:14;;;;;;;38.15;26.88;;;;;;;0.54;100.00;100614.25;4823229;28;26352;-71
2021/12/03 05:34:39;;;;;;;36.95;26.65;;;;;;;0.51;100.00;100608.41;4830893;28;20043;-70
2021/12/03 05:37:06;;;;;;;37.33;26.45;;;;;;;0.58;100.00;100607.63;4818886;28;20054;-70
2021/12/03 05:39:33;;;;;;;34.88;25.73;;;;;;;0.55;100.00;100615.91;4824434;28;20154;-70
2021/12/03 05:41:58;;;;;;;37.35;27.48;;;;;;;0.54;100.00;100608.94;4830764;28;21908;-70
2021/12/03 05:44:24;;;;;;;44.92;27.88;;;;;;;0.57;100.00;100611.28;4816464;28;20066;-71
2021/12/03 05:46:49;;;;;;;41.35;27.95;;;;;;;0.48;100.00;100598.94;4830033;28;20574;-70
2021/12/03 05:49:15;;;;;;;40.97;27.20;;;;;;;0.60;100.00;100607.50;4826538;28;20239;-70
2021/12/03 05:51:40;;;;;;;37.88;27.45;;;;;;;0.61;100.00;100619.75;4822725;28;20141;-70
2021/12/03 05:54:06;;;;;;;34.70;25.48;;;;;;;0.62;100.00;100611.66;4832209;28;20036;-70
2021/12/03 05:56:32;;;;;;;39.45;26.73;;;;;;;0.61;100.00;100620.59;4827877;28;20062;-71
2021/12/03 05:58:57;;;;;;;43.75;26.67;;;;;;;0.60;100.00;100616.28;4833235;29;20070;-71
2021/12/03 06:01:23;;;;;;;35.67;24.55;;;;;;;0.56;100.00;100606.13;4829814;28;20184;-71
2021/12/03 06:03:48;;;;;;;39.00;25.15;;;;;;;0.59;100.00;100606.66;4827639;28;20390;-71
2021/12/03 06:06:15;;;;;;;36.53;26.00;;;;;;;0.56;100.00;100612.28;4833265;28;20603;-71
2021/12/03 06:08:41;;;;;;;31.88;24.50;;;;;;;0.51;100.00;100622.50;4825921;28;20105;-71
2021/12/03 06:11:06;;;;;;;33.80;25.45;;;;;;;0.51;100.00;100619.84;4810982;29;22482;-71
2021/12/03 06:13:32;;;;;;;38.33;26.27;;;;;;;0.57;100.00;100616.59;4813620;28;20697;-71
2021/12/03 06:15:57;;;;;;;39.88;26.25;;;;;;;0.58;100.00;100612.13;4813976;28;20065;-71
2021/12/03 06:18:23;;;;;;;32.35;25.25;;;;;;;0.54;100.00;100603.63;4830396;28;20181;-71
2021/12/03 06:20:49;;;;;;;42.67;28.23;;;;;;;0.59;100.00;100606.66;4812903;28;20771;-71
2021/12/03 06:23:14;;;;;;;44.28;25.25;;;;;;;0.62;100.00;100606.34;4815259;28;20518;-71
2021/12/03 06:25:40;;;;;;;40.67;26.65;;;;;;;0.67;100.00;100601.44;4830512;28;20135;-71
2021/12/03 06:28:05;;;;;;;40.90;26.33;;;;;;;0.71;100.00;100600.13;4825500;28;20088;-71
2021/12/03 06:30:31;;;;;;;41.60;25.95;;;;;;;0.76;100.00;100596.16;4822773;28;20609;-71
2021/12/03 06:32:56;;;;;;;35.58;25.17;;;;;;;0.77;100.00;100598.66;4796359;29;20113;-71
2021/12/03 06:35:22;;;;;;;41.85;26.73;;;;;;;0.79;100.00;100590.56;4794786;29;20624;-71
2021/12/03 06:37:48;;;;;;;42.65;26.38;;;;;;;0.84;100.00;100594.44;4815237;29;20042;-71
2021/12/03 06:40:19;;;;;;;39.40;25.15;;;;;;;0.85;100.00;100589.94;4815581;29;20264;-71
2021/12/03 06:42:44;;;;;;;35.28;25.35;;;;;;;0.93;100.00;100600.59;4830853;28;20034;-71
2021/12/03 06:45:11;;;;;;;36.50;24.58;;;;;;;0.98;100.00;100608.06;4833892;28;20035;-71
2021/12/03 06:47:36;;;;;;;35.63;24.13;;;;;;;1.05;100.00;100603.81;4825101;28;20083;-71
2021/12/03 06:50:04;;;;;;;33.58;21.35;;;;;;;1.06;100.00;100608.97;4821233;29;20066;-70
2021/12/03 06:52:30;;;;;;;35.08;21.13;;;;;;;1.08;100.00;100591.06;4832212;28;20035;-69
2021/12/03 06:54:59;;;;;;;30.27;20.55;;;;;;;1.16;100.00;100591.13;4825650;29;20042;-70
2021/12/03 06:57:24;;;;;;;31.40;19.02;;;;;;;1.23;100.00;100588.69;4815583;29;20137;-72
2021/12/03 06:59:50;;;;;;;31.23;18.40;;;;;;;1.32;100.00;100592.19;4828965;29;20482;-71
2021/12/03 07:02:15;;;;;;;32.00;18.80;;;;;;;1.39;100.00;100593.22;4766514;29;22796;-69
2021/12/03 07:04:41;;;;;;;26.83;17.50;;;;;;;1.36;100.00;100588.22;4814252;29;21823;-70
2021/12/03 07:07:07;;;;;;;29.85;17.50;;;;;;;1.44;100.00;100590.94;4804316;28;20062;-69
2021/12/03 07:09:32;;;;;;;29.83;16.98;;;;;;;1.46;100.00;100585.44;4822871;29;21796;-71
2021/12/03 07:11:58;;;;;;;32.25;16.27;;;;;;;1.48;100.00;100579.00;4829098;29;20589;-72
2021/12/03 07:14:24;;;;;;;23.70;16.17;;;;;;;1.55;100.00;100579.19;4816713;29;20705;-73
2021/12/03 07:16:49;;;;;;;23.73;15.52;;;;;;;1.44;100.00;100569.69;4813484;29;20106;-72
2021/12/03 07:19:15;;;;;;;30.13;15.98;;;;;;;1.45;100.00;100587.28;4812187;29;20043;-72
2021/12/03 07:21:41;;;;;;;28.98;17.02;;;;;;;1.38;100.00;100571.16;4801555;29;20568;-73
2021/12/03 07:24:06;;;;;;;24.45;15.95;;;;;;;1.36;100.00;100567.81;4831626;29;20609;-73
2021/12/03 07:26:32;;;;;;;25.60;17.00;;;;;;;1.35;100.00;100570.66;4828228;29;20838;-74
2021/12/03 07:28:57;;;;;;;29.33;15.63;;;;;;;1.32;100.00;100550.56;4828870;28;20500;-73
2021/12/03 07:31:23;;;;;;;26.42;16.92;;;;;;;1.31;100.00;100571.97;4832373;29;20439;-76
2021/12/03 07:33:49;;;;;;;25.33;16.52;;;;;;;1.30;100.00;100564.97;4812382;28;20051;-76
2021/12/03 07:36:14;;;;;;;30.30;16.83;;;;;;;1.29;100.00;100560.66;4816864;28;20281;-76
2021/12/03 07:38:40;;;;;;;27.75;16.98;;;;;;;1.13;100.00;100556.94;4827901;29;20043;-77
2021/12/03 07:41:06;;;;;;;27.10;15.25;;;;;;;1.19;100.00;100574.91;4811998;28;20061;-76
2021/12/03 07:43:31;;;;;;;28.67;16.27;;;;;;;1.26;100.00;100571.59;4810867;29;20066;-77
2021/12/03 07:45:57;;;;;;;24.25;16.63;;;;;;;1.29;100.00;100571.28;4824711;28;20174;-77
2021/12/03 07:48:23;;;;;;;24.98;14.82;;;;;;;1.24;100.00;100570.94;4794029;28;20166;-76
2021/12/03 07:50:53;;;;;;;27.63;15.25;;;;;;;1.27;100.00;100568.78;4829265;29;21846;-76
2021/12/03 07:53:19;;;;;;;21.50;14.10;;;;;;;1.30;100.00;100572.94;4812974;28;20062;-76
2021/12/03 07:55:49;;;;;;;25.02;14.60;;;;;;;1.39;100.00;100561.38;4795584;28;20035;-76
2021/12/03 07:58:15;;;;;;;24.50;12.45;;;;;;;1.40;100.00;100553.25;4827973;28;21806;-78
2021/12/03 08:00:41;;;;;;;19.27;13.30;;;;;;;1.41;100.00;100546.13;4807894;29;20609;-78
2021/12/03 08:03:06;;;;;;;24.63;13.07;;;;;;;1.45;100.00;100546.63;4818373;29;20136;-78
2021/12/03 08:05:33;;;;;;;27.95;14.50;;;;;;;1.46;100.00;100538.50;4831958;29;20055;-77
2021/12/03 08:07:59;;;;;;;24.05;13.75;;;;;;;1.45;100.00;100534.19;4834876;28;20035;-79
2021/12/03 08:10:25;;;;;;;19.75;12.65;;;;;;;1.48;100.00;100544.50;4820107;29;20145;-78
2021/12/03 08:12:51;;;;;;;23.75;13.70;;;;;;;1.55;100.00;100545.50;4807612;29;20562;-77
2021/12/03 08:15:17;;;;;;;26.60;13.95;;;;;;;1.57;100.00;100537.38;4820360;29;20043;-76
2021/12/03 08:17:42;;;;;;;25.35;14.70;;;;;;;1.56;100.00;100536.53;4835105;28;20617;-77
2021/12/03 08:20:09;;;;;;;21.63;13.35;;;;;;;1.57;100.00;100543.50;4832901;29;20590;-77
2021/12/03 08:22:35;;;;;;;25.20;14.05;;;;;;;1.63;100.00;100537.56;4835199;29;20039;-77
2021/12/03 08:25:02;;;;;;;26.98;13.65;;;;;;;1.66;100.00;100529.28;4815958;29;22148;-76
2021/12/03 08:27:28;;;;;;;21.17;13.68;;;;;;;1.71;100.00;100538.56;4808476;29;20591;-77
2021/12/03 08:29:53;;;;;;;28.10;13.98;;;;;;;1.69;100.00;100532.59;4833317;29;20043;-77
2021/12/03 08:32:19;;;;;;;20.52;13.60;;;;;;;1.75;100.00;100535.41;4827546;29;20502;-77
2021/12/03 08:34:44;;;;;;;30.05;14.75;;;;;;;1.78;100.00;100529.78;4834877;29;20030;-75
2021/12/03 08:37:10;;;;;;;20.10;13.00;;;;;;;1.77;100.00;100525.47;4823129;28;20078;-74
2021/12/03 08:39:36;;;;;;;32.22;15.40;;;;;;;1.81;100.00;100515.34;4821500;29;22821;-75
2021/12/03 08:42:03;;;;;;;22.67;13.70;;;;;;;1.82;100.00;100524.97;4815978;29;23632;-75
2021/12/03 08:44:29;;;;;;;23.02;13.07;;;;;;;1.89;100.00;100518.00;4825935;29;20035;-76
2021/12/03 08:46:59;;;;;;;27.55;13.82;;;;;;;1.91;100.00;100518.69;4816625;29;20038;-76
2021/12/03 08:49:33;;;;;;;25.08;13.40;;;;;;;2.01;100.00;100519.38;4799261;29;22510;-77
2021/12/03 08:57:13;;;;;;;33.33;14.60;;;;;;;2.12;100.00;100515.53;4818303;28;20649;-76
2021/12/03 08:59:39;;;;;;;25.27;15.00;;;;;;;2.15;100.00;100520.53;4824583;29;20059;-77
2021/12/03 09:02:05;;;;;;;35.33;16.25;;;;;;;2.15;100.00;100512.56;4801559;29;20047;-77
2021/12/03 09:04:30;;;;;;;31.23;16.17;;;;;;;2.21;100.00;100508.38;4829595;29;20039;-77
2021/12/03 09:06:57;;;;;;;27.08;16.15;;;;;;;2.25;100.00;100499.13;4818019;29;22114;-76
2021/12/03 09:09:23;;;;;;;29.13;16.23;;;;;;;2.30;100.00;100496.78;4817439;29;21007;-77
2021/12/03 09:11:49;;;;;;;28.05;16.52;;;;;;;2.32;100.00;100497.44;4807301;29;20050;-77
2021/12/03 09:14:24;;;;;;;31.80;16.00;;;;;;;2.29;100.00;100500.44;4819314;29;20065;-77
2021/12/03 09:16:59;;;;;;;32.47;16.95;;;;;;;2.28;100.00;100494.28;4832575;29;22147;-77
2021/12/03 09:19:52;;;;;;;35.63;16.92;;;;;;;2.32;100.00;100500.09;4834269;28;20416;-76
2021/12/03 09:22:20;;;;;;;32.63;17.67;;;;;;;2.27;100.00;100497.91;4819584;29;20351;-78
2021/12/03 09:24:48;;;;;;;32.40;17.83;;;;;;;2.32;100.00;100495.63;4829596;28;20062;-77
2021/12/03 09:27:16;;;;;;;32.88;18.42;;;;;;;2.23;100.00;100495.78;4816569;29;20047;-77
2021/12/03 09:29:42;;;;;;;32.90;20.10;;;;;;;2.20;100.00;100496.09;4829243;29;20471;-77
2021/12/03 09:32:07;;;;;;;30.77;20.25;;;;;;;2.23;100.00;100490.47;4806113;29;20110;-76
2021/12/03 09:34:35;;;;;;;35.75;20.10;;;;;;;2.24;100.00;100478.81;4818305;29;20851;-76
2021/12/03 09:37:00;;;;;;;35.97;21.58;;;;;;;2.27;100.00;100491.78;4794701;29;20054;-76
2021/12/03 09:39:26;;;;;;;36.45;22.17;;;;;;;2.30;100.00;100480.81;4835520;28;20031;-77
2021/12/03 09:41:53;;;;;;;43.65;23.63;;;;;;;2.31;100.00;100482.47;4831444;29;20347;-77
2021/12/03 09:44:20;;;;;;;43.38;24.92;;;;;;;2.37;100.00;100476.50;4815931;29;20875;-76
2021/12/03 09:46:46;;;;;;;41.90;24.15;;;;;;;2.37;100.00;100465.84;4825191;29;21119;-77
2021/12/03 09:49:29;;;;;;;46.05;25.10;;;;;;;2.35;100.00;100451.91;4812116;29;20507;-78
2021/12/03 09:52:10;;;;;;;45.40;26.50;;;;;;;2.40;100.00;100462.88;4832896;29;20137;-78
2021/12/03 09:54:48;;;;;;;47.65;27.60;;;;;;;2.41;100.00;100455.72;4841921;28;20125;-78
2021/12/03 10:13:42;;;;;;;45.58;26.45;;;;;;;2.62;100.00;100427.56;4832313;29;20039;-70
2021/12/03 10:17:19;;;;;;;43.10;26.30;;;;;;;2.70;100.00;100418.72;4817946;28;20055;-72
2021/12/03 10:19:17;;;;;;;43.15;24.77;;;;;;;2.78;100.00;100412.56;4820836;28;20723;-70
2021/12/03 10:30:12;;;;;;;46.83;24.17;;;;;;;2.96;100.00;100396.34;4832034;28;20190;-70
2021/12/03 10:32:58;;;;;;;49.17;24.65;;;;;;;2.97;100.00;100382.88;4831823;28;20035;-68
2021/12/03 10:36:02;;;;;;;44.20;23.15;;;;;;;3.00;100.00;100371.06;4826043;28;20100;-69
2021/12/03 10:38:45;;;;;;;44.75;21.33;;;;;;;3.03;100.00;100370.72;4832224;28;24337;-68
2021/12/03 11:11:42;;;;;;;33.13;14.88;;;;;;;3.27;100.00;100324.47;4837762;29;20611;-69
2021/12/03 11:36:22;;;;;;;27.65;9.65;;;;;;;3.10;100.00;100271.38;4820989;29;20405;-76
2021/12/03 13:26:37;;;;;;;18.58;8.98;;;;;;;2.61;100.00;100114.81;4836262;28;22318;-76
2021/12/03 13:40:48;;;;;;;19.52;10.00;;;;;;;2.74;100.00;100102.72;4843628;29;20035;-76
2021/12/03 14:00:07;;;;;;;15.07;8.90;;;;;;;2.85;100.00;100073.03;4833571;28;22128;-75
2021/12/03 14:07:56;;;;;;;17.45;8.05;;;;;;;2.93;100.00;100061.50;4814149;28;20157;-74
2021/12/03 14:38:12;;;;;;;18.35;7.32;;;;;;;3.08;100.00;100039.19;4821687;29;21891;-74
2021/12/03 14:43:22;;;;;;;21.23;8.07;;;;;;;3.22;100.00;100044.69;4834455;28;22998;-76
2021/12/03 14:46:09;;;;;;;16.67;7.40;;;;;;;3.25;100.00;100047.00;4821057;29;20059;-74
2021/12/03 14:56:19;;;;;;;22.25;7.97;;;;;;;3.42;100.00;100034.31;4812542;29;20090;-73
2021/12/03 14:58:51;;;;;;;18.15;7.07;;;;;;;3.45;100.00;100029.44;4800882;29;20434;-72
2021/12/03 15:01:38;;;;;;;13.10;7.20;;;;;;;3.50;100.00;100027.03;4828783;29;20573;-74
2021/12/03 15:07:03;;;;;;;60.10;33.55;;;;;;;3.50;100.00;100032.34;4829239;28;20558;-73
2021/12/03 15:09:37;;;;;;;14.30;8.18;;;;;;;3.45;100.00;100024.13;4813032;28;20506;-74
2021/12/03 15:15:01;;;;;;;17.92;7.57;;;;;;;3.58;100.00;100040.25;4821100;29;22755;-73
2021/12/03 15:25:08;;;;;;;16.92;9.90;;;;;;;3.72;100.00;100013.75;4829448;28;20035;-74
2021/12/03 16:04:43;;;;;;;20.13;11.23;;;;;;;3.81;100.00;100012.63;4811528;29;20051;-73
2021/12/03 16:10:15;;;;;;;16.67;11.70;;;;;;;3.71;100.00;100017.44;4803219;29;20175;-72
2021/12/03 16:21:58;;;;;;;18.58;13.65;;;;;;;3.62;100.00;100014.06;4820321;29;20509;-72
2021/12/03 16:26:52;;;;;;;24.30;16.23;;;;;;;3.54;100.00;100007.00;4819129;29;20551;-73
2021/12/03 16:46:16;;;;;;;37.67;23.85;;;;;;;3.51;100.00;100023.38;4825781;29;22078;-72
2021/12/03 16:54:01;;;;;;;34.35;25.58;;;;;;;3.49;100.00;100003.28;4829755;29;20514;-72
2021/12/03 16:56:28;;;;;;;;;;;;;;;3.49;100.00;99993.44;4810778;29;20043;-72
2021/12/03 16:58:56;;;;;;;32.38;26.40;;;;;;;3.41;100.00;99984.75;4822448;29;22142;-72
2021/12/03 17:14:03;;;;;;;45.80;31.48;;;;;;;3.49;100.00;99990.78;4816146;29;20603;-72